CheckWX is a tool to help pilots better visualize weather data.  It is not intended as a substitute for an official pre-flight weather briefing.

06:43:43 UTC

KCOE TAF
Coeur D'alene - Pappy Boyington Field Airport
Coeur D'alene, Idaho, USA
KCOE 160520Z 1606/1706 09005KT P6SM SCT120 FM161900 24006KT P6SM FEW070 SCT120 FM170300 14005KT P6SM SCT070 BKN120

Jun-16@
06:00 UTC

Jun-16 @ 06:00 UTC

Jun-16@
19:00 UTC

Jun-16 @ 19:00 UTC

KCOE 160520Z 1606/1706 09005KT P6SM SCT120
Wind
  • 090° at 5 KTS
Cloud Levels
  • Scattered at 12,000' AGL

Jun-16@
19:00 UTC

Jun-16 @ 19:00 UTC

Jun-17@
03:00 UTC

Jun-17 @ 03:00 UTC

FM161900 24006KT P6SM FEW070 SCT120

From

From Standard forecast or significant change

Wind
  • 240° at 6 KTS
Cloud Levels
  • Few at 7,000' AGL
  • Scattered at 12,000' AGL

Jun-17@
03:00 UTC

Jun-17 @ 03:00 UTC

Jun-17@
06:00 UTC

Jun-17 @ 06:00 UTC

FM170300 14005KT P6SM SCT070 BKN120

From

From Standard forecast or significant change

Wind
  • 140° at 5 KTS
Cloud Levels
  • Scattered at 7,000' AGL
  • Broken at 12,000' AGL